Time;durP1;ratioP1;P1;durP2;ratioP2;P2;SDS_P1;SDS_P2;PMS_P1;PMS_P2;Temp;Humidity;BMP_temperature;BMP_pressure;BME280_temperature;BME280_humidity;BME280_pressure;Samples;Min_cycle;Max_cycle;Signal;HPM_P1;HPM_P2
2023/12/21 00:01:23;;;;;;;0.63;0.50;;;17.30;74.60;;;;;;5876337;23;45626;-56
2023/12/21 00:04:04;;;;;;;0.47;0.35;;;17.30;74.90;;;;;;5872764;23;47196;-56
2023/12/21 00:06:41;;;;;;;0.50;0.40;;;17.30;74.90;;;;;;5870308;23;45259;-56
2023/12/21 00:09:08;;;;;;;1.58;0.60;;;17.30;74.90;;;;;;5870791;23;45318;-56
2023/12/21 00:11:35;;;;;;;1.92;0.70;;;17.30;74.80;;;;;;5868394;23;45378;-57
2023/12/21 00:17:16;;;;;;;0.50;0.40;;;17.40;74.70;;;;;;5851250;23;45342;-56
2023/12/21 00:19:45;;;;;;;1.17;0.60;;;17.40;74.50;;;;;;5875166;23;45906;-56
2023/12/21 00:22:34;;;;;;;0.60;0.50;;;17.40;74.50;;;;;;5883358;23;45452;-56
2023/12/21 00:25:33;;;;;;;0.55;0.32;;;17.40;74.50;;;;;;5874683;23;45328;-56
2023/12/21 00:28:00;;;;;;;1.08;0.35;;;17.40;74.60;;;;;;5863150;23;45168;-57
2023/12/21 00:30:42;;;;;;;1.63;0.60;;;17.40;74.60;;;;;;5870854;23;45145;-56
2023/12/21 00:33:09;;;;;;;0.90;0.57;;;17.40;74.50;;;;;;5869579;23;45283;-57
2023/12/21 00:35:36;;;;;;;0.98;0.50;;;17.40;74.40;;;;;;5849821;23;45868;-57
2023/12/21 00:38:25;;;;;;;0.90;0.40;;;17.40;74.50;;;;;;5870734;23;45536;-56
2023/12/21 00:40:53;;;;;;;0.50;0.38;;;17.40;74.60;;;;;;5884280;23;45410;-57
2023/12/21 00:43:22;;;;;;;0.55;0.40;;;17.40;74.70;;;;;;5866119;23;45456;-56
2023/12/21 00:46:02;;;;;;;0.50;0.40;;;17.40;74.80;;;;;;5869462;23;47741;-57
2023/12/21 00:48:47;;;;;;;0.50;0.38;;;17.40;74.80;;;;;;5888170;23;45814;-56
2023/12/21 00:51:42;;;;;;;1.20;0.40;;;17.30;74.90;;;;;;5882727;23;45343;-55
2023/12/21 00:54:30;;;;;;;1.20;0.57;;;17.30;74.80;;;;;;5885977;23;45284;-55
2023/12/21 00:59:46;;;;;;;0.93;0.60;;;17.30;74.50;;;;;;5869501;23;45342;-57
2023/12/21 01:02:36;;;;;;;1.02;0.60;;;17.40;74.40;;;;;;5874224;23;45540;-58
2023/12/21 01:05:25;;;;;;;1.23;0.60;;;17.40;74.60;;;;;;5874807;23;45498;-56
2023/12/21 01:08:18;;;;;;;1.90;0.85;;;17.40;74.30;;;;;;5890360;23;46520;-56
2023/12/21 01:11:08;;;;;;;0.40;0.40;;;17.40;74.60;;;;;;5867579;23;45417;-56
2023/12/21 01:13:37;;;;;;;2.10;0.52;;;17.40;74.30;;;;;;5868756;23;45096;-57
2023/12/21 01:22:08;;;;;;;1.40;0.70;;;17.50;74.40;;;;;;5844569;23;45821;-56
2023/12/21 01:25:03;;;;;;;2.05;0.88;;;17.50;74.30;;;;;;5879990;23;45324;-54
2023/12/21 01:27:48;;;;;;;1.15;0.52;;;17.50;74.50;;;;;;5860988;23;45371;-58
2023/12/21 01:30:25;;;;;;;1.48;0.50;;;17.40;75.00;;;;;;5864571;23;46928;-56
2023/12/21 01:35:55;;;;;;;1.17;0.80;;;17.50;74.60;;;;;;5869755;23;45574;-55
2023/12/21 01:38:38;;;;;;;0.68;0.50;;;17.50;74.60;;;;;;5862037;23;45304;-57
2023/12/21 01:41:26;;;;;;;1.10;0.50;;;17.60;74.60;;;;;;5871185;23;45638;-56
2023/12/21 01:44:15;;;;;;;1.20;0.50;;;17.60;74.50;;;;;;5901271;23;45434;-56
2023/12/21 01:47:03;;;;;;;3.30;0.80;;;17.60;74.30;;;;;;5870606;23;45418;-56
2023/12/21 01:49:43;;;;;;;1.55;0.68;;;17.60;74.30;;;;;;5850872;23;45441;-55
2023/12/21 01:52:25;;;;;;;1.85;0.52;;;17.60;74.20;;;;;;5856480;23;46758;-56
2023/12/21 01:55:20;;;;;;;1.27;0.60;;;17.60;74.40;;;;;;5864622;23;45156;-56
2023/12/21 01:58:13;;;;;;;0.88;0.50;;;17.60;74.20;;;;;;5857546;23;45309;-57
2023/12/21 02:01:09;;;;;;;1.42;0.60;;;17.70;74.20;;;;;;5917900;23;45208;-56
2023/12/21 02:03:39;;;;;;;1.80;0.60;;;17.70;73.90;;;;;;5860449;23;45462;-57
2023/12/21 02:06:07;;;;;;;1.15;0.43;;;17.70;74.30;;;;;;5863593;23;45400;-56
2023/12/21 02:11:27;;;;;;;1.10;0.50;;;17.60;74.60;;;;;;5883304;23;45517;-57
2023/12/21 02:14:10;;;;;;;1.23;0.63;;;17.60;74.50;;;;;;5876692;23;45960;-57
2023/12/21 02:17:07;;;;;;;1.30;0.52;;;17.70;74.10;;;;;;5872503;23;45250;-56
2023/12/21 02:19:34;;;;;;;0.77;0.40;;;17.60;74.40;;;;;;5863254;23;45246;-57
2023/12/21 02:22:28;;;;;;;0.70;0.50;;;17.60;74.50;;;;;;5875929;23;45213;-56
2023/12/21 02:24:57;;;;;;;0.38;0.38;;;17.60;74.80;;;;;;5865976;23;46533;-57
2023/12/21 02:27:26;;;;;;;2.00;0.60;;;17.60;74.80;;;;;;5865654;23;45795;-56
2023/12/21 02:33:33;;;;;;;0.80;0.35;;;17.50;74.50;;;;;;5804900;23;45244;-56
2023/12/21 02:36:27;;;;;;;1.13;0.38;;;17.50;74.50;;;;;;5866179;23;45903;-56
2023/12/21 02:39:15;;;;;;;1.35;0.60;;;17.50;74.90;;;;;;5880672;23;45836;-56
2023/12/21 02:42:21;;;;;;;0.93;0.50;;;17.50;74.90;;;;;;5889381;23;45261;-56
2023/12/21 02:47:40;;;;;;;1.80;0.60;;;17.40;75.10;;;;;;5842429;23;46269;-56
2023/12/21 02:50:17;;;;;;;1.45;0.43;;;17.40;75.10;;;;;;5868961;23;45307;-56
2023/12/21 02:53:10;;;;;;;1.92;0.55;;;17.40;75.10;;;;;;5865373;23;45482;-56
2023/12/21 02:58:40;;;;;;;0.75;0.40;;;17.40;75.20;;;;;;5849544;23;45130;-56
2023/12/21 03:01:07;;;;;;;1.83;0.63;;;17.40;75.20;;;;;;5858013;23;45421;-56
2023/12/21 03:03:55;;;;;;;1.00;0.60;;;17.40;75.40;;;;;;5866361;23;45395;-56
2023/12/21 03:09:47;;;;;;;0.73;0.40;;;17.40;75.40;;;;;;5809533;23;45757;-56
2023/12/21 03:15:47;;;;;;;0.90;0.50;;;17.40;75.30;;;;;;5829575;23;45418;-56
2023/12/21 03:18:15;;;;;;;1.17;0.60;;;17.40;75.30;;;;;;5866716;23;45784;-56
2023/12/21 03:20:42;;;;;;;0.63;0.40;;;17.40;75.30;;;;;;5862812;23;47525;-56
2023/12/21 03:23:09;;;;;;;0.85;0.40;;;17.40;76.50;;;;;;5851774;23;45295;-56
2023/12/21 03:25:58;;;;;;;1.85;0.40;;;17.40;75.20;;;;;;5864580;23;45371;-56
2023/12/21 03:28:44;;;;;;;1.38;0.45;;;17.40;75.30;;;;;;5864348;23;45133;-55
2023/12/21 03:31:18;;;;;;;1.70;0.80;;;17.40;75.30;;;;;;5843586;23;45619;-56
2023/12/21 03:34:27;;;;;;;1.15;0.35;;;17.40;75.20;;;;;;5876775;23;45153;-56
2023/12/21 03:37:18;;;;;;;1.38;0.47;;;17.40;75.20;;;;;;5858186;23;45357;-56
2023/12/21 03:40:13;;;;;;;1.42;0.43;;;17.40;75.40;;;;;;5875632;23;45597;-55
2023/12/21 03:42:40;;;;;;;1.17;0.50;;;17.40;75.40;;;;;;5854452;23;46166;-56
2023/12/21 03:45:11;;;;;;;2.65;0.60;;;17.40;75.50;;;;;;5856908;23;45435;-56
2023/12/21 03:48:12;;;;;;;1.92;0.40;;;17.30;75.50;;;;;;5884759;23;45294;-56
2023/12/21 03:50:51;;;;;;;1.35;0.60;;;17.30;75.40;;;;;;5847355;23;45395;-55
2023/12/21 03:53:18;;;;;;;0.90;0.40;;;17.30;75.50;;;;;;5867252;23;46591;-55
2023/12/21 03:55:57;;;;;;;1.35;0.50;;;17.30;75.70;;;;;;5876152;23;45169;-56
2023/12/21 03:58:49;;;;;;;2.75;0.60;;;17.30;75.90;;;;;;5867342;23;45450;-56
2023/12/21 04:04:36;;;;;;;0.43;0.30;;;17.30;75.90;;;;;;5807346;23;45410;-56
2023/12/21 04:07:03;;;;;;;1.23;0.38;;;17.30;75.90;;;;;;5857927;23;45238;-56
2023/12/21 04:09:59;;;;;;;0.20;0.20;;;17.40;75.70;;;;;;5865043;23;45332;-55
2023/12/21 04:13:02;;;;;;;0.43;0.28;;;17.40;75.40;;;;;;5846114;23;45464;-56
2023/12/21 04:15:29;;;;;;;0.52;0.40;;;17.40;75.30;;;;;;5860634;23;46066;-55
2023/12/21 04:17:56;;;;;;;3.47;0.70;;;17.40;75.10;;;;;;5844353;23;45509;-55
2023/12/21 04:20:36;;;;;;;1.42;0.52;;;17.40;75.00;;;;;;5877894;23;45375;-55
2023/12/21 04:23:24;;;;;;;1.25;0.40;;;17.40;75.00;;;;;;5859398;23;45180;-56
2023/12/21 04:26:18;;;;;;;0.98;0.35;;;17.40;74.90;;;;;;5883407;23;46422;-55
2023/12/21 04:29:12;;;;;;;1.25;0.40;;;17.40;75.00;;;;;;5887080;23;45555;-56
2023/12/21 04:32:00;;;;;;;0.93;0.40;;;17.40;75.00;;;;;;5867160;23;45297;-56
2023/12/21 04:34:56;;;;;;;2.30;0.47;;;17.40;75.10;;;;;;5866794;23;45418;-56
2023/12/21 04:37:55;;;;;;;1.30;0.47;;;17.40;75.10;;;;;;5878136;23;47551;-56
2023/12/21 04:41:01;;;;;;;0.80;0.50;;;17.40;75.10;;;;;;5856267;23;45293;-56
2023/12/21 04:43:43;;;;;;;2.15;0.40;;;17.40;75.30;;;;;;5859130;23;45113;-56
2023/12/21 04:46:23;;;;;;;1.85;0.57;;;17.40;75.20;;;;;;5868731;23;45510;-56
2023/12/21 04:49:20;;;;;;;1.60;0.40;;;17.40;75.20;;;;;;5853769;23;46424;-56
2023/12/21 04:52:08;;;;;;;0.77;0.50;;;17.40;75.30;;;;;;5880232;23;45405;-56
2023/12/21 04:54:36;;;;;;;0.43;0.28;;;17.40;75.50;;;;;;5855207;23;45370;-56
2023/12/21 04:57:19;;;;;;;1.30;0.30;;;17.40;75.50;;;;;;5876768;23;45290;-55
2023/12/21 04:59:58;;;;;;;1.30;0.60;;;17.40;75.90;;;;;;5861333;23;45381;-56
2023/12/21 05:02:51;;;;;;;1.42;0.50;;;17.40;76.00;;;;;;5863900;23;45375;-55
2023/12/21 05:05:21;;;;;;;1.27;0.40;;;17.30;75.90;;;;;;5863397;23;45406;-56
2023/12/21 05:07:47;;;;;;;0.80;0.40;;;17.30;75.90;;;;;;5854295;23;45485;-56
2023/12/21 05:10:39;;;;;;;1.73;0.43;;;17.30;75.90;;;;;;5915483;23;45506;-55
2023/12/21 05:13:07;;;;;;;0.80;0.40;;;17.30;75.90;;;;;;5859651;23;45529;-56
2023/12/21 05:16:08;;;;;;;0.75;0.40;;;17.30;75.90;;;;;;5868270;23;45866;-56
2023/12/21 05:19:02;;;;;;;0.70;0.40;;;17.30;75.90;;;;;;5864471;23;45424;-55
2023/12/21 05:22:08;;;;;;;1.20;0.63;;;17.30;75.90;;;;;;5875177;23;47096;-55
2023/12/21 05:24:38;;;;;;;1.40;0.75;;;17.40;76.00;;;;;;5872396;23;45066;-56
2023/12/21 05:27:58;;;;;;;0.90;0.40;;;17.40;75.80;;;;;;5870268;23;45470;-55
2023/12/21 05:30:47;;;;;;;0.65;0.30;;;17.40;75.80;;;;;;5855683;23;45222;-55
2023/12/21 05:33:37;;;;;;;1.52;0.40;;;17.40;75.70;;;;;;5868797;23;47606;-55
2023/12/21 05:36:04;;;;;;;2.53;0.40;;;17.40;75.70;;;;;;5863748;23;45360;-55
2023/12/21 05:38:31;;;;;;;1.13;0.50;;;17.40;75.50;;;;;;5864536;23;45290;-55
2023/12/21 05:41:14;;;;;;;0.90;0.50;;;17.40;75.40;;;;;;5869177;23;45333;-55
2023/12/21 05:44:04;;;;;;;2.08;0.50;;;17.40;75.20;;;;;;5870290;23;45762;-55
2023/12/21 05:46:31;;;;;;;2.22;1.02;;;17.40;75.10;;;;;;5865863;23;45244;-56
2023/12/21 05:49:20;;;;;;;2.35;0.70;;;17.40;75.00;;;;;;5877784;23;45209;-55
2023/12/21 05:52:17;;;;;;;3.33;0.70;;;17.40;74.90;;;;;;5896570;23;45256;-56
2023/12/21 05:54:56;;;;;;;1.85;0.52;;;17.40;74.90;;;;;;5856283;23;45752;-58
2023/12/21 05:57:59;;;;;;;2.38;0.93;;;17.40;74.70;;;;;;5864051;23;45413;-57
2023/12/21 06:01:32;;;;;;;1.20;0.52;;;17.40;74.80;;;;;;5866471;23;45427;-57
2023/12/21 06:03:59;;;;;;;0.82;0.50;;;17.40;74.90;;;;;;5866521;23;45252;-57
2023/12/21 06:07:04;;;;;;;1.52;0.70;;;17.40;75.20;;;;;;5882016;23;47379;-56
2023/12/21 06:09:52;;;;;;;2.42;0.65;;;17.30;75.50;;;;;;5886831;23;45475;-56
2023/12/21 06:12:21;;;;;;;1.67;0.70;;;17.30;75.90;;;;;;5867072;23;45127;-56
2023/12/21 06:14:57;;;;;;;3.28;0.52;;;17.30;75.90;;;;;;5855326;23;45452;-57
2023/12/21 06:17:28;;;;;;;1.38;1.00;;;17.30;75.90;;;;;;5891404;23;45660;-57
2023/12/21 06:20:09;;;;;;;1.48;0.70;;;17.30;76.90;;;;;;5883315;23;45492;-57
2023/12/21 06:22:36;;;;;;;4.15;0.70;;;17.30;75.90;;;;;;5856828;23;45372;-57
2023/12/21 06:25:30;;;;;;;1.70;0.60;;;17.30;75.90;;;;;;5902118;23;45357;-56
2023/12/21 06:27:57;;;;;;;1.77;0.45;;;17.30;75.90;;;;;;5860006;23;46268;-57
2023/12/21 06:30:42;;;;;;;2.03;0.70;;;17.30;75.90;;;;;;5895023;23;45386;-56
2023/12/21 06:33:23;;;;;;;2.88;0.90;;;17.30;75.90;;;;;;5866184;23;45853;-56
2023/12/21 06:36:02;;;;;;;4.57;1.08;;;17.40;76.00;;;;;;5866068;23;45383;-56
2023/12/21 06:38:48;;;;;;;1.33;0.63;;;17.40;76.00;;;;;;5873989;23;46044;-57
2023/12/21 06:41:44;;;;;;;0.57;0.40;;;17.40;76.00;;;;;;5890184;23;45411;-56
2023/12/21 06:44:42;;;;;;;2.15;0.68;;;17.40;76.00;;;;;;5878418;23;45683;-56
2023/12/21 06:47:22;;;;;;;2.38;0.70;;;17.40;76.00;;;;;;5868366;23;45434;-56
2023/12/21 06:49:58;;;;;;;1.75;0.63;;;17.40;76.00;;;;;;5865487;23;45871;-57
2023/12/21 06:52:46;;;;;;;2.10;0.60;;;17.40;76.00;;;;;;5871540;23;45425;-56
2023/12/21 06:58:48;;;;;;;3.60;0.85;;;17.40;76.00;;;;;;5807945;23;45310;-57
2023/12/21 07:01:43;;;;;;;3.03;1.08;;;17.40;76.00;;;;;;5870334;23;47559;-57
2023/12/21 07:04:25;;;;;;;3.72;0.70;;;17.40;76.00;;;;;;5866647;23;45439;-57
2023/12/21 07:07:08;;;;;;;1.08;0.50;;;17.40;76.00;;;;;;5855616;23;45066;-57
2023/12/21 07:09:37;;;;;;;1.70;0.50;;;17.40;76.00;;;;;;5876338;23;45733;-56
2023/12/21 07:12:16;;;;;;;4.72;0.60;;;17.30;75.90;;;;;;5865255;23;46517;-56
2023/12/21 07:18:12;;;;;;;2.63;0.80;;;17.30;75.90;;;;;;5801940;23;45945;-56
2023/12/21 07:20:38;;;;;;;4.47;0.80;;;17.40;76.00;;;;;;5872797;23;45376;-56
2023/12/21 07:26:20;;;;;;;1.85;1.00;;;17.30;75.90;;;;;;5858073;23;45356;-56
2023/12/21 07:29:17;;;;;;;2.92;0.60;;;17.30;75.90;;;;;;5869006;23;45090;-56
2023/12/21 07:31:44;;;;;;;3.80;0.95;;;17.30;75.90;;;;;;5868755;23;45249;-56
2023/12/21 07:34:12;;;;;;;2.20;0.68;;;17.30;75.90;;;;;;5871341;23;45466;-56
2023/12/21 07:37:18;;;;;;;1.55;0.70;;;17.30;75.90;;;;;;5879129;23;45222;-56
2023/12/21 07:40:08;;;;;;;3.25;0.70;;;17.40;76.00;;;;;;5877947;23;45316;-57
2023/12/21 07:43:09;;;;;;;2.13;0.80;;;17.40;76.00;;;;;;5887629;23;45113;-57
2023/12/21 07:45:37;;;;;;;0.95;0.57;;;17.40;76.00;;;;;;5868996;23;46475;-57
2023/12/21 07:51:57;;;;;;;3.67;1.08;;;17.40;76.00;;;;;;5856386;23;45289;-56
2023/12/21 07:54:37;;;;;;;2.05;0.70;;;17.40;75.90;;;;;;5857851;23;45265;-56
2023/12/21 08:00:19;;;;;;;0.77;0.60;;;17.40;76.00;;;;;;5846804;23;45461;-56
2023/12/21 08:09:45;;;;;;;3.13;0.93;;;17.30;75.90;;;;;;5805477;23;45724;-57
2023/12/21 08:12:14;;;;;;;2.83;0.73;;;17.30;75.90;;;;;;5857203;23;45389;-56
2023/12/21 08:14:50;;;;;;;3.58;0.82;;;17.30;76.10;;;;;;5835692;23;45361;-56
2023/12/21 08:17:38;;;;;;;2.90;1.00;;;17.30;75.90;;;;;;5874146;23;45788;-56
2023/12/21 08:20:47;;;;;;;2.53;0.88;;;17.30;75.90;;;;;;5894899;23;47479;-57
2023/12/21 08:23:39;;;;;;;2.45;0.70;;;17.30;75.90;;;;;;5893821;23;45296;-56
2023/12/21 08:26:27;;;;;;;2.47;1.05;;;17.30;75.90;;;;;;5872542;23;45168;-56
2023/12/21 08:29:05;;;;;;;3.10;0.95;;;17.30;75.90;;;;;;5852936;23;45340;-57
2023/12/21 08:31:47;;;;;;;3.47;0.77;;;17.30;76.10;;;;;;5867525;23;46405;-56
2023/12/21 08:34:37;;;;;;;3.22;0.98;;;17.30;75.90;;;;;;5870020;23;45393;-56
2023/12/21 08:37:41;;;;;;;4.50;0.98;;;17.30;76.10;;;;;;5879846;23;45323;-56
2023/12/21 08:40:42;;;;;;;1.75;0.57;;;17.30;76.30;;;;;;5875507;23;45640;-56
2023/12/21 08:43:09;;;;;;;2.38;0.70;;;17.30;76.30;;;;;;5855594;23;45884;-56
2023/12/21 08:46:07;;;;;;;2.70;0.75;;;17.30;76.40;;;;;;5847913;23;45330;-56
2023/12/21 08:48:56;;;;;;;4.07;0.93;;;17.30;76.40;;;;;;5852324;23;45520;-56
2023/12/21 08:51:23;;;;;;;1.33;0.63;;;17.30;76.50;;;;;;5872333;23;45274;-56
2023/12/21 08:53:51;;;;;;;2.45;0.60;;;17.30;76.50;;;;;;5880544;23;46363;-56
2023/12/21 08:56:25;;;;;;;3.30;0.80;;;17.30;76.60;;;;;;5838742;23;45555;-56
2023/12/21 08:59:16;;;;;;;1.90;0.60;;;17.30;76.70;;;;;;5879659;23;45420;-56
2023/12/21 09:02:10;;;;;;;2.63;0.60;;;17.30;76.60;;;;;;5870369;23;45374;-55
2023/12/21 09:05:05;;;;;;;1.92;0.52;;;17.30;76.80;;;;;;5911112;23;46121;-55
2023/12/21 09:07:48;;;;;;;1.45;0.43;;;17.30;76.80;;;;;;5882199;23;46129;-56
2023/12/21 09:10:34;;;;;;;1.40;0.38;;;17.30;76.70;;;;;;5862586;23;45705;-56
2023/12/21 09:15:42;;;;;;;1.98;0.75;;;17.40;76.80;;;;;;5889695;23;45502;-56
2023/12/21 09:18:10;;;;;;;2.28;0.70;;;17.40;76.80;;;;;;5934521;23;45489;-56
2023/12/21 09:23:59;;;;;;;3.10;0.65;;;17.30;76.70;;;;;;5878980;23;45399;-56
2023/12/21 09:27:00;;;;;;;2.15;0.65;;;17.30;76.80;;;;;;5922005;23;46284;-56
2023/12/21 09:29:58;;;;;;;0.88;0.52;;;17.30;76.90;;;;;;5879463;23;45195;-56
2023/12/21 09:32:59;;;;;;;1.27;0.40;;;17.30;76.90;;;;;;5875428;23;45363;-56
2023/12/21 09:35:48;;;;;;;1.50;0.80;;;17.30;77.00;;;;;;5868619;23;45665;-56
2023/12/21 09:38:27;;;;;;;0.85;0.55;;;17.30;77.00;;;;;;5874683;23;46042;-56
2023/12/21 09:41:23;;;;;;;1.55;0.68;;;17.30;77.00;;;;;;5887615;23;45295;-56
2023/12/21 09:44:02;;;;;;;3.08;0.70;;;17.30;78.10;;;;;;5829803;23;45343;-56
2023/12/21 09:46:34;;;;;;;0.88;0.38;;;17.30;77.00;;;;;;5848533;23;45570;-56
2023/12/21 09:49:36;;;;;;;3.05;0.50;;;17.30;77.20;;;;;;5805697;23;45754;-56
2023/12/21 09:52:17;;;;;;;1.38;0.47;;;17.30;78.30;;;;;;5830332;23;45211;-56
2023/12/21 09:55:06;;;;;;;3.53;0.65;;;17.30;77.30;;;;;;5832149;23;45387;-56
2023/12/21 10:00:52;;;;;;;0.60;0.30;;;17.30;77.30;;;;;;5825434;23;45761;-56
2023/12/21 10:03:50;;;;;;;2.20;0.60;;;17.30;77.50;;;;;;5845704;23;45388;-56
2023/12/21 10:06:42;;;;;;;1.60;0.40;;;17.30;77.50;;;;;;5851256;23;45451;-56
2023/12/21 10:09:35;;;;;;;0.75;0.30;;;17.30;77.60;;;;;;5848985;23;45134;-56
2023/12/21 10:12:02;;;;;;;0.90;0.38;;;17.30;77.50;;;;;;5893497;23;46798;-56
2023/12/21 10:14:31;;;;;;;0.70;0.30;;;17.30;77.50;;;;;;5881499;23;45525;-55
2023/12/21 10:17:00;;;;;;;0.75;0.40;;;17.30;77.60;;;;;;5883063;23;45149;-55
2023/12/21 10:20:11;;;;;;;0.75;0.40;;;17.30;77.60;;;;;;5890091;23;45093;-56
2023/12/21 10:23:07;;;;;;;1.52;0.52;;;17.30;77.70;;;;;;5856687;23;45615;-57
2023/12/21 10:28:14;;;;;;;1.15;0.40;;;17.30;77.70;;;;;;5809583;23;45381;-57
2023/12/21 10:30:41;;;;;;;0.45;0.20;;;17.30;77.80;;;;;;5833649;23;45479;-57
2023/12/21 10:33:15;;;;;;;0.98;0.47;;;17.30;77.80;;;;;;5836798;23;46652;-59
2023/12/21 10:36:16;;;;;;;1.42;0.47;;;17.30;77.90;;;;;;5904562;23;45396;-59
2023/12/21 10:38:45;;;;;;;0.70;0.35;;;17.40;78.80;;;;;;5888053;23;45857;-57
2023/12/21 10:41:12;;;;;;;0.50;0.50;;;17.40;78.30;;;;;;5951571;23;45360;-57
2023/12/21 10:44:11;;;;;;;0.73;0.43;;;17.30;78.30;;;;;;5924433;23;46335;-57
2023/12/21 10:47:01;;;;;;;0.52;0.38;;;17.30;78.40;;;;;;5861577;23;46047;-57
2023/12/21 10:49:54;;;;;;;1.42;0.40;;;17.30;78.50;;;;;;5857669;23;45222;-57
2023/12/21 10:52:24;;;;;;;0.80;0.30;;;17.30;78.60;;;;;;5852682;23;45102;-58
2023/12/21 10:57:58;;;;;;;0.80;0.30;;;17.30;78.70;;;;;;5837752;23;45499;-57
2023/12/21 11:00:34;;;;;;;1.35;0.50;;;17.30;78.80;;;;;;5854175;23;45336;-58
2023/12/21 11:03:31;;;;;;;0.75;0.55;;;17.30;78.90;;;;;;5857466;23;45233;-58
2023/12/21 11:06:20;;;;;;;1.08;0.43;;;17.30;78.80;;;;;;5837450;23;46461;-57
2023/12/21 11:09:20;;;;;;;3.13;0.50;;;17.30;78.80;;;;;;5873718;23;45312;-58
2023/12/21 11:12:25;;;;;;;1.63;0.70;;;17.30;78.60;;;;;;5882812;23;45085;-59
2023/12/21 11:15:15;;;;;;;2.10;0.50;;;17.30;79.10;;;;;;5900336;23;45207;-59
2023/12/21 11:21:04;;;;;;;1.15;0.50;;;17.50;78.40;;;;;;5858814;23;45483;-59
2023/12/21 11:23:33;;;;;;;0.60;0.30;;;17.60;78.00;;;;;;5860698;23;45017;-59
2023/12/21 11:26:00;;;;;;;1.08;0.50;;;17.60;77.80;;;;;;5860646;23;45447;-59
2023/12/21 11:29:05;;;;;;;1.40;0.55;;;17.60;77.70;;;;;;5886901;23;47395;-58
2023/12/21 11:31:48;;;;;;;2.15;0.47;;;17.60;77.70;;;;;;5873538;23;45350;-59
2023/12/21 11:34:49;;;;;;;0.55;0.40;;;17.60;77.60;;;;;;5888351;23;45489;-59
2023/12/21 11:40:58;;;;;;;1.27;0.30;;;17.60;77.40;;;;;;5915587;23;46377;-59
2023/12/21 11:43:37;;;;;;;0.98;0.30;;;17.70;77.40;;;;;;5917941;23;45278;-59
2023/12/21 11:46:50;;;;;;;0.77;0.43;;;17.70;77.30;;;;;;5920447;23;45348;-58
2023/12/21 11:49:41;;;;;;;0.80;0.40;;;17.70;77.30;;;;;;5897302;23;45962;-58
2023/12/21 11:52:26;;;;;;;2.67;0.35;;;17.70;77.60;;;;;;5879591;23;46619;-58
2023/12/21 11:54:52;;;;;;;0.98;0.40;;;17.60;77.70;;;;;;5847714;23;45131;-59
2023/12/21 11:57:21;;;;;;;1.13;0.40;;;17.70;77.50;;;;;;5851191;23;45195;-59
2023/12/21 12:00:06;;;;;;;2.45;0.50;;;17.60;77.70;;;;;;5861133;23;45200;-58
2023/12/21 12:02:46;;;;;;;1.50;0.82;;;17.70;77.40;;;;;;5875080;23;45961;-59
2023/12/21 12:05:30;;;;;;;2.83;0.85;;;17.70;77.30;;;;;;5859386;23;45154;-58
2023/12/21 12:08:33;;;;;;;1.30;0.50;;;17.70;77.40;;;;;;5911933;23;45471;-58
2023/12/21 12:11:00;;;;;;;1.20;0.50;;;17.70;77.30;;;;;;5878629;23;45519;-62
2023/12/21 12:14:04;;;;;;;0.95;0.57;;;17.70;78.50;;;;;;5956450;23;46235;-62
2023/12/21 12:19:12;;;;;;;6.18;0.70;;;17.80;83.30;;;;;;5872748;23;45145;-58
2023/12/21 12:22:04;;;;;;;1.52;0.40;;;17.70;83.50;;;;;;5860459;23;45264;-57
2023/12/21 12:24:31;;;;;;;1.58;0.40;;;17.70;83.50;;;;;;5845831;23;46370;-58
2023/12/21 12:27:25;;;;;;;2.30;0.63;;;17.70;82.50;;;;;;5876594;23;45093;-58
2023/12/21 12:30:32;;;;;;;5.00;0.60;;;17.70;83.00;;;;;;5849832;23;45371;-57
2023/12/21 12:33:14;;;;;;;2.85;0.90;;;17.70;82.70;;;;;;5869811;23;45384;-57
2023/12/21 12:35:43;;;;;;;2.10;0.68;;;17.60;81.80;;;;;;5847100;23;45426;-56
2023/12/21 12:38:10;;;;;;;0.85;0.65;;;17.50;81.50;;;;;;5834518;23;45074;-58
2023/12/21 12:41:09;;;;;;;2.58;0.40;;;17.50;81.40;;;;;;5874437;23;45186;-57
2023/12/21 12:43:36;;;;;;;2.20;0.40;;;17.50;84.00;;;;;;5860964;23;45690;-57
2023/12/21 12:46:31;;;;;;;1.48;0.40;;;17.50;82.10;;;;;;5842230;23;46478;-57
2023/12/21 12:49:09;;;;;;;1.52;0.40;;;17.40;81.50;;;;;;5872295;23;45148;-57
2023/12/21 12:51:57;;;;;;;1.13;0.35;;;17.40;81.30;;;;;;5853896;23;45257;-57
2023/12/21 12:54:50;;;;;;;1.33;0.20;;;17.40;81.00;;;;;;5870382;23;45475;-57
2023/12/21 12:57:33;;;;;;;1.75;0.50;;;17.40;81.00;;;;;;5845913;23;47618;-57
2023/12/21 13:00:20;;;;;;;1.10;0.20;;;17.40;81.00;;;;;;5854855;23;45006;-57
2023/12/21 13:03:13;;;;;;;2.65;0.40;;;17.40;81.00;;;;;;5869876;23;45172;-57
2023/12/21 13:05:43;;;;;;;0.57;0.40;;;17.40;81.00;;;;;;5843826;23;45343;-57
2023/12/21 13:08:10;;;;;;;0.40;0.20;;;17.40;80.80;;;;;;5866549;23;45752;-57
2023/12/21 13:10:47;;;;;;;2.45;0.30;;;17.40;80.70;;;;;;5834426;23;45015;-57
2023/12/21 13:13:44;;;;;;;3.33;0.30;;;17.40;80.80;;;;;;5886753;23;45096;-56
2023/12/21 13:16:11;;;;;;;1.23;0.30;;;17.40;80.80;;;;;;5843025;23;45213;-57
2023/12/21 13:18:40;;;;;;;0.95;0.57;;;17.30;81.00;;;;;;5828995;23;47399;-57
2023/12/21 13:21:21;;;;;;;0.95;0.40;;;17.30;81.20;;;;;;5842942;23;45240;-57
2023/12/21 13:24:13;;;;;;;0.52;0.20;;;17.30;81.30;;;;;;5880552;23;45054;-57
2023/12/21 13:26:40;;;;;;;0.30;0.20;;;17.30;81.10;;;;;;5852656;23;45131;-57
2023/12/21 13:29:30;;;;;;;0.50;0.30;;;17.40;80.90;;;;;;5843930;23;46311;-57
2023/12/21 13:31:57;;;;;;;2.25;0.60;;;17.30;81.00;;;;;;5840834;23;45600;-57
2023/12/21 13:34:41;;;;;;;0.15;0.15;;;17.30;81.00;;;;;;5829756;23;45895;-57
2023/12/21 13:37:34;;;;;;;0.70;0.28;;;17.20;80.80;;;;;;5866064;23;45331;-59
2023/12/21 13:40:27;;;;;;;0.30;0.30;;;17.20;80.70;;;;;;5856025;23;46702;-60
2023/12/21 13:43:18;;;;;;;0.35;0.20;;;17.20;80.50;;;;;;5890235;23;45206;-60
2023/12/21 13:45:45;;;;;;;0.15;0.15;;;17.20;80.40;;;;;;5885094;23;45209;-60
2023/12/21 13:48:12;;;;;;;1.17;0.20;;;17.20;80.20;;;;;;5861009;23;45270;-59
2023/12/21 13:50:39;;;;;;;0.93;0.30;;;17.20;80.10;;;;;;5858042;23;46209;-59
2023/12/21 13:56:16;;;;;;;1.10;0.35;;;17.20;80.00;;;;;;5839234;23;45227;-59
2023/12/21 13:58:56;;;;;;;1.85;0.40;;;17.20;80.10;;;;;;5863832;23;45463;-59
2023/12/21 14:04:14;;;;;;;0.50;0.22;;;17.20;80.30;;;;;;5865208;23;45099;-59
2023/12/21 14:06:41;;;;;;;1.85;0.55;;;17.20;80.60;;;;;;5877404;23;45305;-58
2023/12/21 14:09:10;;;;;;;1.23;0.20;;;17.20;80.40;;;;;;5870275;23;45393;-58
2023/12/21 14:11:37;;;;;;;1.40;0.40;;;17.20;80.00;;;;;;5840945;23;45942;-58
2023/12/21 14:14:29;;;;;;;1.30;0.43;;;17.20;79.80;;;;;;5872811;23;45046;-59
2023/12/21 14:17:08;;;;;;;2.22;0.30;;;17.20;79.30;;;;;;5879671;23;45196;-59
2023/12/21 14:20:01;;;;;;;0.98;0.40;;;17.30;79.30;;;;;;5883749;23;45289;-59
2023/12/21 14:22:29;;;;;;;1.35;0.30;;;17.20;79.30;;;;;;5931171;23;45275;-60
2023/12/21 14:28:16;;;;;;;2.00;0.20;;;17.20;79.80;;;;;;5907004;23;45315;-59
2023/12/21 14:30:43;;;;;;;2.50;0.35;;;17.30;79.60;;;;;;5929200;23;45271;-58
2023/12/21 14:33:51;;;;;;;1.85;0.20;;;17.30;79.60;;;;;;5940169;23;45594;-58
2023/12/21 14:40:31;;;;;;;1.13;0.52;;;17.30;79.60;;;;;;5894549;23;44873;-58
2023/12/21 14:59:05;;;;;;;2.47;0.45;;;17.30;80.10;;;;;;5991128;22;1279174;-57
2023/12/21 15:01:32;;;;;;;1.52;0.50;;;17.20;79.80;;;;;;5887085;23;45277;-57
2023/12/21 15:06:43;;;;;;;4.85;0.85;;;17.30;79.80;;;;;;5874222;23;45897;-57
2023/12/21 15:09:10;;;;;;;1.77;0.45;;;17.40;79.70;;;;;;5895007;23;45307;-57
2023/12/21 15:12:04;;;;;;;1.45;0.40;;;17.40;79.50;;;;;;5895342;23;45509;-57
2023/12/21 15:14:59;;;;;;;2.08;0.40;;;17.40;79.60;;;;;;5880201;23;45204;-57
2023/12/21 15:17:26;;;;;;;0.50;0.30;;;17.40;79.40;;;;;;5889647;23;47439;-60
2023/12/21 15:19:52;;;;;;;2.20;0.52;;;17.40;79.40;;;;;;5884524;23;45478;-59
2023/12/21 15:25:31;;;;;;;2.53;0.50;;;17.30;79.80;;;;;;5874050;23;45033;-58
2023/12/21 15:28:07;;;;;;;1.33;0.38;;;17.20;79.60;;;;;;5854543;23;46044;-58
2023/12/21 15:30:37;;;;;;;1.55;0.40;;;17.20;79.80;;;;;;5843949;23;45359;-58
2023/12/21 15:33:31;;;;;;;1.92;0.60;;;17.20;79.50;;;;;;5863304;23;45060;-59
2023/12/21 15:42:15;;;;;;;0.82;0.25;;;17.30;79.00;;;;;;5768908;23;45317;-58
2023/12/21 15:44:41;;;;;;;1.48;0.45;;;17.30;79.10;;;;;;5854056;23;45086;-58
2023/12/21 15:47:17;;;;;;;1.95;0.70;;;17.40;79.20;;;;;;5848939;23;45330;-58
2023/12/21 15:50:21;;;;;;;3.67;0.70;;;17.30;78.80;;;;;;5858322;23;47244;-58
2023/12/21 15:53:07;;;;;;;2.08;0.32;;;17.30;78.90;;;;;;5872088;23;45197;-58
2023/12/21 15:55:37;;;;;;;2.35;0.50;;;17.30;79.10;;;;;;5859936;23;45208;-59
2023/12/21 16:00:47;;;;;;;1.70;0.52;;;17.30;78.50;;;;;;5807020;23;45882;-58
2023/12/21 16:03:39;;;;;;;2.13;0.45;;;17.30;78.50;;;;;;5817987;23;46215;-58
2023/12/21 16:06:07;;;;;;;1.67;0.65;;;17.30;78.60;;;;;;5857133;23;45924;-58
2023/12/21 16:08:34;;;;;;;1.45;0.40;;;17.30;78.60;;;;;;5867099;23;45148;-58
2023/12/21 16:11:01;;;;;;;0.98;0.47;;;17.30;78.50;;;;;;5870890;23;46948;-58
2023/12/21 16:13:49;;;;;;;1.02;0.50;;;17.30;78.40;;;;;;5845227;23;44749;-57